createdAt,value
2022-10-16T00:00:55.349Z,100.00
2022-10-16T00:03:25.391Z,100.00
2022-10-16T00:05:54.827Z,100.00
2022-10-16T00:08:21.534Z,100.00
2022-10-16T00:10:48.214Z,100.00
2022-10-16T00:13:14.916Z,100.00
2022-10-16T00:15:44.052Z,100.00
2022-10-16T00:18:11.028Z,100.00
2022-10-16T00:20:38.087Z,100.00
2022-10-16T00:23:06.171Z,100.00
2022-10-16T00:25:33.955Z,100.00
2022-10-16T00:28:01.959Z,100.00
2022-10-16T00:30:29.090Z,100.00
2022-10-16T00:32:56.315Z,100.00
2022-10-16T00:35:23.087Z,100.00
2022-10-16T00:37:49.868Z,100.00
2022-10-16T00:40:17.221Z,100.00
2022-10-16T00:42:43.859Z,100.00
2022-10-16T00:45:11.122Z,100.00
2022-10-16T00:47:43.270Z,100.00
2022-10-16T00:50:11.891Z,100.00
2022-10-16T00:52:42.794Z,100.00
2022-10-16T00:55:10.483Z,100.00
2022-10-16T00:57:38.507Z,100.00
2022-10-16T01:00:08.374Z,100.00
2022-10-16T01:02:35.633Z,99.65
2022-10-16T01:05:03.944Z,100.00
2022-10-16T01:07:58.115Z,100.00
2022-10-16T01:10:30.931Z,100.00
2022-10-16T01:13:06.807Z,100.00
2022-10-16T01:18:18.097Z,93.97
2022-10-16T01:20:59.239Z,91.29
2022-10-16T01:23:25.837Z,91.21
2022-10-16T01:25:55.343Z,90.75
2022-10-16T01:28:29.115Z,92.22
2022-10-16T01:31:00.844Z,90.39
2022-10-16T01:33:36.849Z,90.31
2022-10-16T01:36:16.863Z,91.68
2022-10-16T01:38:48.812Z,92.47
2022-10-16T01:41:26.041Z,92.84
2022-10-16T01:44:17.394Z,92.69
2022-10-16T01:46:48.519Z,90.95
2022-10-16T01:49:15.666Z,90.78
2022-10-16T01:51:46.318Z,91.14
2022-10-16T01:54:16.171Z,91.92
2022-10-16T01:56:44.515Z,91.75
2022-10-16T01:59:15.215Z,93.01
2022-10-16T02:01:46.412Z,92.68
2022-10-16T02:04:24.017Z,93.91
2022-10-16T02:06:51.034Z,94.36
2022-10-16T02:09:17.940Z,94.68
2022-10-16T02:11:45.580Z,91.37
2022-10-16T02:14:12.258Z,90.50
2022-10-16T02:16:44.892Z,91.07
2022-10-16T02:19:13.267Z,91.82
2022-10-16T02:21:45.616Z,91.81
2022-10-16T02:24:35.892Z,90.19
2022-10-16T02:27:10.379Z,86.52
2022-10-16T02:29:42.251Z,86.49
2022-10-16T02:32:11.457Z,85.58
2022-10-16T02:34:39.083Z,84.72
2022-10-16T02:37:07.792Z,85.60
2022-10-16T02:39:35.681Z,88.70
2022-10-16T02:42:02.567Z,90.90
2022-10-16T02:44:29.226Z,89.04
2022-10-16T02:46:55.867Z,86.03
2022-10-16T02:49:22.535Z,84.65
2022-10-16T02:51:49.184Z,83.65
2022-10-16T02:54:15.834Z,83.28
2022-10-16T02:56:42.464Z,84.11
2022-10-16T02:59:09.631Z,83.90
2022-10-16T03:01:37.027Z,84.75
2022-10-16T03:04:04.034Z,84.08
2022-10-16T03:06:30.696Z,84.74
2022-10-16T03:08:57.362Z,84.44
2022-10-16T03:11:24.141Z,84.52
2022-10-16T03:13:50.713Z,82.37
2022-10-16T03:16:17.351Z,82.19
2022-10-16T03:18:43.971Z,80.18
2022-10-16T03:21:10.626Z,80.90
2022-10-16T03:23:37.275Z,81.44
2022-10-16T03:26:03.907Z,80.29
2022-10-16T03:28:30.593Z,78.28
2022-10-16T03:30:57.287Z,78.06
2022-10-16T03:33:26.602Z,78.48
2022-10-16T03:35:54.617Z,79.10
2022-10-16T03:38:22.243Z,75.97
2022-10-16T03:40:49.297Z,75.41
2022-10-16T03:43:16.183Z,75.29
2022-10-16T03:45:42.897Z,76.91
2022-10-16T03:48:09.469Z,78.08
2022-10-16T03:50:36.177Z,77.44
2022-10-16T03:53:03.143Z,76.53
2022-10-16T03:55:29.776Z,76.29
2022-10-16T03:57:56.358Z,75.53
2022-10-16T04:00:23.174Z,74.61
2022-10-16T04:02:49.819Z,74.74
2022-10-16T04:05:16.545Z,73.29
2022-10-16T04:07:43.169Z,73.73
2022-10-16T04:10:10.003Z,73.97
2022-10-16T04:12:36.608Z,74.02
2022-10-16T04:15:03.457Z,73.71
2022-10-16T04:17:30.080Z,72.01
2022-10-16T04:19:56.648Z,72.74
2022-10-16T04:22:23.294Z,72.52
2022-10-16T04:24:49.932Z,72.19
2022-10-16T04:27:16.527Z,73.10
2022-10-16T04:29:43.117Z,72.23
2022-10-16T04:32:13.008Z,72.19
2022-10-16T04:34:41.185Z,72.25
2022-10-16T04:37:07.843Z,71.65
2022-10-16T04:39:34.535Z,73.13
2022-10-16T04:42:01.332Z,73.01
2022-10-16T04:44:27.997Z,71.76
2022-10-16T04:46:54.801Z,71.53
2022-10-16T04:49:21.683Z,71.01
2022-10-16T04:51:48.642Z,70.60
2022-10-16T04:54:15.288Z,69.43
2022-10-16T04:56:47.888Z,70.57
2022-10-16T04:59:16.045Z,70.27
2022-10-16T05:01:42.962Z,69.98
2022-10-16T05:04:09.931Z,69.37
2022-10-16T05:06:36.996Z,69.87
2022-10-16T05:09:04.065Z,69.71
2022-10-16T05:11:30.818Z,70.34
2022-10-16T05:13:57.738Z,71.01
2022-10-16T05:16:24.542Z,72.13
2022-10-16T05:18:56.190Z,72.27
2022-10-16T05:21:31.182Z,72.83
2022-10-16T05:23:57.914Z,72.69
2022-10-16T05:26:24.780Z,74.37
2022-10-16T05:28:51.731Z,74.67
2022-10-16T05:31:18.613Z,74.01
2022-10-16T05:33:45.400Z,73.32
2022-10-16T05:36:12.410Z,73.30
2022-10-16T05:38:39.553Z,73.07
2022-10-16T05:41:06.566Z,73.77
2022-10-16T05:43:33.611Z,73.38
2022-10-16T05:46:05.471Z,72.59
2022-10-16T05:48:33.024Z,73.68
2022-10-16T05:51:01.067Z,72.92
2022-10-16T05:53:33.259Z,72.76
2022-10-16T05:56:00.145Z,72.42
2022-10-16T05:58:30.866Z,72.82
2022-10-16T06:01:03.337Z,72.33
2022-10-16T06:03:30.106Z,71.88
2022-10-16T06:05:56.749Z,71.63
2022-10-16T06:08:24.324Z,72.08
2022-10-16T06:11:01.695Z,72.21
2022-10-16T06:13:28.618Z,72.99
2022-10-16T06:15:59.072Z,73.65
2022-10-16T06:18:27.123Z,74.49
2022-10-16T06:20:54.874Z,74.23
2022-10-16T06:23:25.366Z,75.99
2022-10-16T06:25:52.073Z,76.31
2022-10-16T06:28:18.781Z,76.00
2022-10-16T06:30:45.659Z,76.43
2022-10-16T06:33:12.634Z,77.98
2022-10-16T06:35:39.298Z,78.17
2022-10-16T06:38:05.873Z,78.18
2022-10-16T06:40:32.621Z,78.43
2022-10-16T06:42:59.164Z,77.59
2022-10-16T06:45:25.699Z,78.66
2022-10-16T06:47:52.236Z,78.15
2022-10-16T06:50:18.788Z,77.50
2022-10-16T06:52:45.351Z,77.80
2022-10-16T06:55:12.129Z,77.78
2022-10-16T06:57:38.670Z,78.32
2022-10-16T07:00:06.129Z,78.99
2022-10-16T07:02:32.724Z,79.15
2022-10-16T07:04:59.532Z,79.21
2022-10-16T07:07:27.600Z,79.79
2022-10-16T07:09:54.391Z,79.73
2022-10-16T07:12:20.993Z,79.96
2022-10-16T07:14:47.787Z,79.85
2022-10-16T07:17:16.516Z,78.55
2022-10-16T07:19:43.063Z,78.28
2022-10-16T07:22:09.859Z,78.82
2022-10-16T07:24:36.418Z,78.05
2022-10-16T07:27:03.013Z,78.15
2022-10-16T07:29:29.614Z,78.20
2022-10-16T07:31:56.221Z,79.00
2022-10-16T07:34:22.976Z,78.50
2022-10-16T07:36:50.960Z,79.10
2022-10-16T07:39:18.273Z,77.81
2022-10-16T07:41:44.929Z,77.86
2022-10-16T07:44:11.655Z,77.68
2022-10-16T07:46:38.522Z,77.16
2022-10-16T07:49:05.243Z,75.16
2022-10-16T07:51:32.073Z,73.60
2022-10-16T07:53:58.832Z,73.16
2022-10-16T07:56:25.389Z,72.55
2022-10-16T07:58:53.041Z,74.70
2022-10-16T08:01:20.381Z,73.81
2022-10-16T08:03:49.811Z,74.68
2022-10-16T08:06:19.650Z,74.88
2022-10-16T08:08:48.977Z,75.38
2022-10-16T08:11:15.949Z,76.06
2022-10-16T08:13:43.372Z,75.86
2022-10-16T08:16:10.886Z,74.99
2022-10-16T08:18:38.662Z,75.15
2022-10-16T08:21:05.759Z,74.35
2022-10-16T08:23:34.029Z,74.51
2022-10-16T08:26:08.808Z,72.99
2022-10-16T08:28:36.367Z,73.70
2022-10-16T08:31:15.160Z,73.04
2022-10-16T08:33:43.963Z,73.02
2022-10-16T08:36:11.761Z,72.02
2022-10-16T08:38:38.810Z,70.24
2022-10-16T08:41:14.388Z,69.21
2022-10-16T08:44:06.670Z,65.73
2022-10-16T08:46:33.142Z,63.25
2022-10-16T08:49:01.120Z,63.74
2022-10-16T08:51:30.082Z,62.38
2022-10-16T08:53:59.617Z,61.78
2022-10-16T08:56:27.381Z,61.51
2022-10-16T08:58:59.647Z,62.16
2022-10-16T09:01:41.718Z,61.09
2022-10-16T09:04:30.766Z,61.15
2022-10-16T09:07:14.003Z,60.92
2022-10-16T09:10:12.701Z,61.32
2022-10-16T09:12:58.905Z,60.95
2022-10-16T09:15:35.849Z,59.35
2022-10-16T09:18:07.571Z,59.41
2022-10-16T09:20:43.608Z,57.30
2022-10-16T09:23:35.669Z,56.71
2022-10-16T09:26:04.124Z,59.32
2022-10-16T09:28:31.309Z,59.08
2022-10-16T09:30:58.258Z,57.39
2022-10-16T09:33:29.737Z,55.00
2022-10-16T09:35:59.837Z,52.96
2022-10-16T09:38:32.125Z,50.22
2022-10-16T09:41:03.574Z,50.28
2022-10-16T09:43:42.578Z,51.09
2022-10-16T09:46:29.089Z,52.70
2022-10-16T09:48:58.762Z,51.77
2022-10-16T09:51:31.634Z,50.14
2022-10-16T09:54:22.868Z,48.57
2022-10-16T09:56:52.881Z,47.96
2022-10-16T09:59:24.929Z,48.44
2022-10-16T10:01:53.985Z,47.99
2022-10-16T10:04:22.965Z,48.82
2022-10-16T10:06:57.804Z,48.65
2022-10-16T10:09:26.764Z,47.91
2022-10-16T10:11:58.151Z,46.43
2022-10-16T10:14:46.369Z,45.89
2022-10-16T10:17:24.811Z,46.30
2022-10-16T10:20:20.478Z,45.69
2022-10-16T10:22:47.152Z,45.64
2022-10-16T10:25:13.697Z,45.50
2022-10-16T10:27:44.505Z,44.82
2022-10-16T10:30:31.350Z,43.70
2022-10-16T10:33:11.115Z,45.62
2022-10-16T10:35:59.413Z,45.28
2022-10-16T10:38:44.826Z,44.09
2022-10-16T10:41:31.993Z,44.58
2022-10-16T10:44:50.919Z,44.59
2022-10-16T10:47:38.030Z,42.92
2022-10-16T10:50:19.535Z,44.78
2022-10-16T10:52:55.796Z,43.54
2022-10-16T10:55:40.830Z,44.84
2022-10-16T10:58:24.896Z,44.42
2022-10-16T11:01:02.604Z,44.57
2022-10-16T11:03:58.361Z,44.21
2022-10-16T11:09:29.167Z,41.86
2022-10-16T11:12:13.434Z,42.63
2022-10-16T11:14:44.203Z,41.71
2022-10-16T11:17:19.661Z,41.86
2022-10-16T11:19:49.525Z,41.93
2022-10-16T11:22:23.465Z,40.61
2022-10-16T11:27:48.585Z,39.40
2022-10-16T11:30:24.007Z,40.35
2022-10-16T11:33:05.930Z,38.75
2022-10-16T11:35:59.294Z,39.79
2022-10-16T11:38:48.999Z,39.00
2022-10-16T11:41:36.221Z,39.51
2022-10-16T11:44:23.445Z,39.54
2022-10-16T11:47:33.653Z,39.53
2022-10-16T11:50:04.598Z,38.92
2022-10-16T11:52:49.710Z,38.68
2022-10-16T11:55:25.305Z,37.85
2022-10-16T11:57:59.240Z,37.62
2022-10-16T12:00:32.869Z,37.24
2022-10-16T12:03:42.169Z,37.39
2022-10-16T12:06:21.720Z,36.39
2022-10-16T12:08:52.127Z,36.19
2022-10-16T12:11:35.556Z,36.96
2022-10-16T12:14:28.581Z,38.43
2022-10-16T12:16:55.397Z,36.88
2022-10-16T12:19:24.133Z,37.49
2022-10-16T12:21:53.280Z,37.83
2022-10-16T12:24:33.782Z,37.71
2022-10-16T12:27:01.332Z,37.92
2022-10-16T12:29:43.898Z,37.94
2022-10-16T12:32:46.850Z,38.28
2022-10-16T12:35:24.669Z,37.55
2022-10-16T12:37:52.672Z,36.16
2022-10-16T12:40:33.102Z,37.67
2022-10-16T12:42:59.948Z,36.51
2022-10-16T12:45:28.817Z,36.51
2022-10-16T12:47:56.515Z,36.96
2022-10-16T12:50:34.077Z,37.47
2022-10-16T12:53:01.988Z,37.52
2022-10-16T12:55:43.562Z,38.32
2022-10-16T12:58:35.142Z,37.86
2022-10-16T13:01:27.688Z,37.74
2022-10-16T13:04:14.347Z,36.69
2022-10-16T13:06:52.475Z,37.32
2022-10-16T13:09:30.608Z,37.95
2022-10-16T13:12:00.165Z,37.41
2022-10-16T13:14:40.497Z,38.71
2022-10-16T13:17:19.234Z,39.42
2022-10-16T13:19:59.664Z,40.27
2022-10-16T13:22:31.349Z,40.24
2022-10-16T13:25:23.476Z,40.24
2022-10-16T13:27:56.004Z,39.96
2022-10-16T13:30:39.640Z,39.38
2022-10-16T13:33:32.402Z,40.20
2022-10-16T13:35:59.353Z,41.21
2022-10-16T13:38:29.054Z,41.04
2022-10-16T13:41:17.938Z,41.74
2022-10-16T13:43:52.116Z,41.89
2022-10-16T13:46:21.666Z,42.42
2022-10-16T13:49:03.685Z,41.46
2022-10-16T13:51:32.040Z,42.26
2022-10-16T13:53:59.630Z,41.67
2022-10-16T13:56:28.773Z,41.58
2022-10-16T13:59:01.704Z,43.28
2022-10-16T14:01:33.190Z,43.08
2022-10-16T14:04:09.565Z,43.97
2022-10-16T14:06:38.165Z,44.72
2022-10-16T14:09:29.302Z,45.69
2022-10-16T14:12:01.967Z,45.09
2022-10-16T14:14:36.731Z,44.59
2022-10-16T14:17:04.138Z,45.48
2022-10-16T14:19:32.155Z,45.64
2022-10-16T14:22:00.903Z,45.05
2022-10-16T14:24:35.219Z,45.56
2022-10-16T14:27:02.972Z,45.52
2022-10-16T14:29:34.307Z,45.11
2022-10-16T14:32:25.585Z,45.37
2022-10-16T14:35:32.082Z,45.71
2022-10-16T14:38:00.659Z,45.25
2022-10-16T14:40:31.156Z,44.67
2022-10-16T14:42:58.770Z,46.23
2022-10-16T14:45:29.368Z,46.29
2022-10-16T14:47:59.417Z,47.26
2022-10-16T14:50:26.052Z,47.72
2022-10-16T14:52:52.775Z,48.71
2022-10-16T14:55:19.604Z,48.92
2022-10-16T14:57:47.153Z,48.74
2022-10-16T15:00:24.278Z,48.98
2022-10-16T15:02:52.027Z,48.55
2022-10-16T15:05:24.708Z,48.70
2022-10-16T15:07:51.728Z,48.98
2022-10-16T15:10:19.004Z,49.01
2022-10-16T15:12:45.535Z,48.78
2022-10-16T15:15:24.710Z,49.10
2022-10-16T15:17:57.067Z,49.85
2022-10-16T15:20:36.709Z,49.13
2022-10-16T15:23:05.623Z,49.17
2022-10-16T15:25:34.596Z,48.64
2022-10-16T15:28:03.358Z,48.84
2022-10-16T15:30:30.138Z,49.42
2022-10-16T15:32:57.016Z,49.58
2022-10-16T15:35:23.638Z,49.87
2022-10-16T15:37:50.618Z,50.34
2022-10-16T15:40:19.535Z,51.21
2022-10-16T15:42:46.043Z,51.49
2022-10-16T15:45:13.613Z,51.48
2022-10-16T15:47:45.114Z,52.01
2022-10-16T15:50:14.788Z,52.46
2022-10-16T15:52:42.260Z,52.71
2022-10-16T15:55:10.849Z,52.61
2022-10-16T15:57:43.596Z,52.68
2022-10-16T16:00:19.319Z,52.50
2022-10-16T16:02:51.748Z,52.90
2022-10-16T16:05:18.919Z,53.04
2022-10-16T16:07:45.461Z,53.33
2022-10-16T16:10:12.807Z,53.86
2022-10-16T16:12:39.832Z,54.50
2022-10-16T16:15:08.656Z,54.94
2022-10-16T16:17:35.866Z,54.86
2022-10-16T16:20:03.118Z,54.63
2022-10-16T16:22:29.908Z,55.00
2022-10-16T16:24:56.810Z,54.92
2022-10-16T16:27:26.104Z,54.88
2022-10-16T16:29:54.365Z,54.73
2022-10-16T16:32:21.294Z,55.30
2022-10-16T16:34:48.466Z,54.83
2022-10-16T16:37:15.037Z,55.34
2022-10-16T16:39:41.564Z,55.84
2022-10-16T16:42:08.697Z,55.47
2022-10-16T16:44:37.166Z,56.31
2022-10-16T16:47:05.051Z,56.47
2022-10-16T16:49:31.636Z,56.36
2022-10-16T16:51:58.392Z,56.41
2022-10-16T16:54:25.180Z,56.49
2022-10-16T16:56:51.742Z,57.12
2022-10-16T16:59:21.011Z,57.32
2022-10-16T17:01:49.139Z,58.06
2022-10-16T17:04:17.479Z,57.84
2022-10-16T17:06:44.055Z,57.95
2022-10-16T17:09:14.106Z,58.21
2022-10-16T17:11:42.553Z,57.95
2022-10-16T17:14:10.755Z,58.21
2022-10-16T17:16:39.480Z,58.96
2022-10-16T17:19:12.900Z,59.59
2022-10-16T17:21:39.725Z,59.54
2022-10-16T17:24:07.213Z,60.16
2022-10-16T17:26:38.166Z,61.51
2022-10-16T17:29:05.156Z,60.61
2022-10-16T17:31:34.493Z,61.42
2022-10-16T17:34:04.408Z,60.93
2022-10-16T17:36:34.042Z,61.13
2022-10-16T17:39:04.611Z,61.25
2022-10-16T17:41:32.650Z,60.84
2022-10-16T17:43:59.949Z,61.85
2022-10-16T17:46:29.595Z,61.62
2022-10-16T17:48:56.386Z,61.68
2022-10-16T17:51:25.720Z,62.86
2022-10-16T17:53:55.785Z,63.27
2022-10-16T17:56:25.590Z,62.32
2022-10-16T17:58:55.145Z,62.92
2022-10-16T18:01:25.413Z,63.21
2022-10-16T18:03:57.568Z,63.17
2022-10-16T18:06:25.082Z,62.86
2022-10-16T18:08:52.916Z,63.48
2022-10-16T18:11:20.744Z,64.08
2022-10-16T18:13:53.220Z,64.50
2022-10-16T18:16:20.387Z,64.69
2022-10-16T18:18:47.198Z,64.58
2022-10-16T18:21:16.841Z,65.29
2022-10-16T18:23:49.216Z,65.17
2022-10-16T18:26:18.961Z,65.54
2022-10-16T18:28:45.599Z,66.48
2022-10-16T18:31:14.835Z,66.51
2022-10-16T18:33:48.035Z,65.53
2022-10-16T18:36:15.344Z,65.80
2022-10-16T18:38:41.968Z,66.32
2022-10-16T18:41:08.711Z,65.87
2022-10-16T18:43:36.974Z,66.13
2022-10-16T18:46:08.859Z,65.84
2022-10-16T18:48:36.286Z,66.09
2022-10-16T18:51:17.942Z,66.12
2022-10-16T18:53:47.463Z,65.87
2022-10-16T18:56:15.993Z,66.47
2022-10-16T18:58:44.787Z,65.41
2022-10-16T19:01:16.363Z,66.29
2022-10-16T19:03:44.103Z,65.63
2022-10-16T19:06:16.932Z,65.78
2022-10-16T19:08:44.187Z,66.40
2022-10-16T19:11:12.778Z,66.39
2022-10-16T19:13:39.393Z,66.61
2022-10-16T19:16:20.323Z,66.79
2022-10-16T19:18:47.924Z,66.23
2022-10-16T19:21:15.789Z,66.58
2022-10-16T19:23:42.674Z,65.81
2022-10-16T19:26:12.056Z,66.40
2022-10-16T19:28:39.798Z,66.48
2022-10-16T19:31:11.586Z,67.44
2022-10-16T19:33:39.071Z,67.06
2022-10-16T19:36:09.054Z,67.04
2022-10-16T19:38:35.606Z,66.99
2022-10-16T19:41:12.926Z,67.34
2022-10-16T19:43:40.310Z,66.57
2022-10-16T19:46:09.690Z,66.82
2022-10-16T19:48:37.184Z,67.11
2022-10-16T19:51:04.651Z,67.25
2022-10-16T19:53:31.893Z,67.21
2022-10-16T19:55:59.405Z,66.92
2022-10-16T19:58:26.917Z,66.86
2022-10-16T20:00:55.045Z,66.99
2022-10-16T20:03:21.776Z,67.61
2022-10-16T20:05:53.575Z,67.87
2022-10-16T20:08:22.214Z,68.06
2022-10-16T20:10:52.812Z,67.55
2022-10-16T20:13:22.250Z,67.00
2022-10-16T20:15:52.283Z,67.52
2022-10-16T20:18:24.351Z,67.54
2022-10-16T20:20:52.573Z,68.18
2022-10-16T20:23:20.252Z,68.05
2022-10-16T20:25:47.498Z,67.29
2022-10-16T20:28:39.868Z,68.22
2022-10-16T20:31:20.382Z,68.29
2022-10-16T20:33:49.270Z,68.14
2022-10-16T20:36:20.029Z,68.65
2022-10-16T20:38:49.364Z,69.20
2022-10-16T20:41:21.085Z,69.83
2022-10-16T20:43:53.187Z,69.96
2022-10-16T20:46:29.512Z,69.42
2022-10-16T20:49:05.996Z,69.50
2022-10-16T20:51:38.793Z,69.72
2022-10-16T20:54:07.580Z,69.70
2022-10-16T20:56:36.429Z,70.06
2022-10-16T20:59:04.068Z,69.47
2022-10-16T21:01:31.979Z,70.09
2022-10-16T21:04:02.249Z,70.15
2022-10-16T21:06:31.426Z,70.50
2022-10-16T21:08:59.943Z,70.01
2022-10-16T21:11:27.942Z,70.74
2022-10-16T21:13:59.186Z,71.05
2022-10-16T21:16:28.331Z,71.63
2022-10-16T21:19:00.494Z,71.12
2022-10-16T21:21:31.412Z,70.48
2022-10-16T21:23:59.533Z,70.77
2022-10-16T21:26:29.781Z,70.61
2022-10-16T21:28:58.746Z,71.89
2022-10-16T21:31:25.581Z,72.11
2022-10-16T21:33:53.525Z,72.57
2022-10-16T21:36:28.718Z,73.21
2022-10-16T21:38:55.857Z,73.05
2022-10-16T21:41:27.950Z,72.73
2022-10-16T21:43:56.501Z,73.11
2022-10-16T21:46:26.250Z,73.34
2022-10-16T21:48:53.701Z,73.40
2022-10-16T21:51:20.784Z,73.65
2022-10-16T21:53:47.385Z,72.83
2022-10-16T21:56:16.521Z,73.22
2022-10-16T21:58:43.758Z,73.43
2022-10-16T22:01:14.170Z,73.41
2022-10-16T22:03:41.040Z,72.87
2022-10-16T22:06:09.051Z,73.07
2022-10-16T22:08:38.327Z,73.17
2022-10-16T22:11:16.075Z,73.32
2022-10-16T22:13:56.363Z,74.03
2022-10-16T22:16:26.707Z,74.11
2022-10-16T22:18:55.560Z,73.82
2022-10-16T22:21:22.348Z,73.49
2022-10-16T22:23:49.291Z,73.76
2022-10-16T22:26:15.953Z,72.73
2022-10-16T22:28:44.084Z,73.57
2022-10-16T22:31:13.630Z,73.16
2022-10-16T22:33:40.919Z,72.88
2022-10-16T22:36:23.428Z,72.76
2022-10-16T22:38:55.605Z,73.10
2022-10-16T22:41:23.363Z,73.35
2022-10-16T22:43:50.296Z,73.68
2022-10-16T22:46:30.492Z,73.48
2022-10-16T22:48:59.054Z,74.02
2022-10-16T22:51:29.589Z,73.68
2022-10-16T22:53:58.231Z,74.06
2022-10-16T22:56:24.919Z,73.45
2022-10-16T22:58:51.674Z,72.79
2022-10-16T23:01:23.097Z,73.43
2022-10-16T23:03:49.764Z,74.87
2022-10-16T23:06:16.538Z,73.26
2022-10-16T23:08:43.163Z,73.11
2022-10-16T23:11:12.322Z,72.97
2022-10-16T23:13:40.442Z,73.57
2022-10-16T23:16:07.727Z,73.53
2022-10-16T23:18:34.907Z,73.21
2022-10-16T23:21:09.891Z,73.40
2022-10-16T23:23:38.126Z,73.94
2022-10-16T23:26:12.320Z,73.49
2022-10-16T23:28:40.623Z,73.43
2022-10-16T23:31:08.322Z,73.44
2022-10-16T23:33:36.555Z,74.31
2022-10-16T23:36:13.110Z,74.29
2022-10-16T23:38:39.984Z,74.11
2022-10-16T23:41:07.173Z,74.10
2022-10-16T23:43:33.953Z,74.00
2022-10-16T23:46:00.933Z,74.02
2022-10-16T23:48:28.057Z,74.73
2022-10-16T23:50:56.554Z,74.55
2022-10-16T23:53:24.786Z,74.22
2022-10-16T23:55:51.674Z,74.64
2022-10-16T23:58:18.915Z,75.86
